sensor_id;sensor_type;location;lat;lon;timestamp;P1;durP1;ratioP1;P2;durP2;ratioP2
47912;SDS011;33676;51.006;17.180;2023-04-08T00:01:47;14.60;;;13.00;;
47912;SDS011;33676;51.006;17.180;2023-04-08T00:04:15;17.10;;;12.90;;
47912;SDS011;33676;51.006;17.180;2023-04-08T00:06:44;15.20;;;12.70;;
47912;SDS011;33676;51.006;17.180;2023-04-08T00:09:12;12.80;;;11.20;;
47912;SDS011;33676;51.006;17.180;2023-04-08T00:11:40;13.70;;;11.50;;
47912;SDS011;33676;51.006;17.180;2023-04-08T00:14:09;12.90;;;11.60;;
47912;SDS011;33676;51.006;17.180;2023-04-08T00:16:38;13.60;;;11.50;;
47912;SDS011;33676;51.006;17.180;2023-04-08T00:19:06;14.50;;;11.80;;
47912;SDS011;33676;51.006;17.180;2023-04-08T00:21:34;14.30;;;12.50;;
47912;SDS011;33676;51.006;17.180;2023-04-08T00:24:03;13.80;;;12.00;;
47912;SDS011;33676;51.006;17.180;2023-04-08T00:26:32;12.70;;;11.30;;
47912;SDS011;33676;51.006;17.180;2023-04-08T00:29:00;12.70;;;11.00;;
47912;SDS011;33676;51.006;17.180;2023-04-08T00:31:28;15.20;;;12.30;;
47912;SDS011;33676;51.006;17.180;2023-04-08T00:33:57;12.10;;;10.60;;
47912;SDS011;33676;51.006;17.180;2023-04-08T00:36:26;12.90;;;11.30;;
47912;SDS011;33676;51.006;17.180;2023-04-08T00:38:54;14.10;;;12.40;;
47912;SDS011;33676;51.006;17.180;2023-04-08T00:41:23;15.60;;;12.70;;
47912;SDS011;33676;51.006;17.180;2023-04-08T00:43:53;16.00;;;14.40;;
47912;SDS011;33676;51.006;17.180;2023-04-08T00:46:22;14.80;;;12.70;;
47912;SDS011;33676;51.006;17.180;2023-04-08T00:48:50;15.50;;;13.80;;
47912;SDS011;33676;51.006;17.180;2023-04-08T00:51:19;17.40;;;14.60;;
47912;SDS011;33676;51.006;17.180;2023-04-08T00:53:48;17.10;;;13.90;;
47912;SDS011;33676;51.006;17.180;2023-04-08T00:56:16;19.90;;;15.10;;
47912;SDS011;33676;51.006;17.180;2023-04-08T00:58:45;16.70;;;14.70;;
47912;SDS011;33676;51.006;17.180;2023-04-08T01:01:25;19.90;;;15.50;;
47912;SDS011;33676;51.006;17.180;2023-04-08T01:07:14;20.30;;;16.70;;
47912;SDS011;33676;51.006;17.180;2023-04-08T01:09:48;20.60;;;16.20;;
47912;SDS011;33676;51.006;17.180;2023-04-08T01:12:25;21.60;;;17.10;;
47912;SDS011;33676;51.006;17.180;2023-04-08T01:15:04;21.70;;;17.40;;
47912;SDS011;33676;51.006;17.180;2023-04-08T01:17:34;23.90;;;18.80;;
47912;SDS011;33676;51.006;17.180;2023-04-08T01:20:05;20.30;;;14.80;;
47912;SDS011;33676;51.006;17.180;2023-04-08T01:25:32;20.30;;;15.10;;
47912;SDS011;33676;51.006;17.180;2023-04-08T01:28:08;20.00;;;16.00;;
47912;SDS011;33676;51.006;17.180;2023-04-08T01:30:40;22.60;;;17.30;;
47912;SDS011;33676;51.006;17.180;2023-04-08T01:33:11;19.70;;;17.10;;
47912;SDS011;33676;51.006;17.180;2023-04-08T01:35:43;25.10;;;20.60;;
47912;SDS011;33676;51.006;17.180;2023-04-08T01:38:14;28.20;;;20.30;;
47912;SDS011;33676;51.006;17.180;2023-04-08T01:40:45;24.90;;;19.10;;
47912;SDS011;33676;51.006;17.180;2023-04-08T01:43:16;24.00;;;21.50;;
47912;SDS011;33676;51.006;17.180;2023-04-08T01:45:46;26.90;;;19.10;;
47912;SDS011;33676;51.006;17.180;2023-04-08T01:48:17;28.10;;;19.50;;
47912;SDS011;33676;51.006;17.180;2023-04-08T01:50:46;25.00;;;19.30;;
47912;SDS011;33676;51.006;17.180;2023-04-08T01:53:15;23.80;;;19.40;;
47912;SDS011;33676;51.006;17.180;2023-04-08T01:55:43;24.70;;;19.00;;
47912;SDS011;33676;51.006;17.180;2023-04-08T01:58:17;25.70;;;18.80;;
47912;SDS011;33676;51.006;17.180;2023-04-08T02:03:18;21.10;;;18.10;;
47912;SDS011;33676;51.006;17.180;2023-04-08T02:05:51;22.00;;;16.00;;
47912;SDS011;33676;51.006;17.180;2023-04-08T02:08:20;22.20;;;18.00;;
47912;SDS011;33676;51.006;17.180;2023-04-08T02:10:48;22.10;;;18.70;;
47912;SDS011;33676;51.006;17.180;2023-04-08T02:13:16;19.80;;;16.00;;
47912;SDS011;33676;51.006;17.180;2023-04-08T02:15:49;22.80;;;17.90;;
47912;SDS011;33676;51.006;17.180;2023-04-08T02:18:24;18.00;;;15.90;;
47912;SDS011;33676;51.006;17.180;2023-04-08T02:21:08;21.40;;;15.80;;
47912;SDS011;33676;51.006;17.180;2023-04-08T02:23:41;20.60;;;16.80;;
47912;SDS011;33676;51.006;17.180;2023-04-08T02:26:16;19.70;;;15.70;;
47912;SDS011;33676;51.006;17.180;2023-04-08T02:28:47;17.30;;;15.00;;
47912;SDS011;33676;51.006;17.180;2023-04-08T02:31:17;18.50;;;15.10;;
47912;SDS011;33676;51.006;17.180;2023-04-08T02:33:47;18.70;;;15.50;;
47912;SDS011;33676;51.006;17.180;2023-04-08T02:36:18;19.10;;;15.80;;
47912;SDS011;33676;51.006;17.180;2023-04-08T02:38:48;17.20;;;14.90;;
47912;SDS011;33676;51.006;17.180;2023-04-08T02:41:17;19.40;;;15.30;;
47912;SDS011;33676;51.006;17.180;2023-04-08T02:43:46;18.50;;;15.10;;
47912;SDS011;33676;51.006;17.180;2023-04-08T02:46:15;20.00;;;14.40;;
47912;SDS011;33676;51.006;17.180;2023-04-08T02:48:43;18.30;;;14.50;;
47912;SDS011;33676;51.006;17.180;2023-04-08T02:51:12;15.90;;;13.20;;
47912;SDS011;33676;51.006;17.180;2023-04-08T02:53:40;15.70;;;12.90;;
47912;SDS011;33676;51.006;17.180;2023-04-08T02:56:09;15.60;;;13.50;;
47912;SDS011;33676;51.006;17.180;2023-04-08T02:58:41;17.20;;;14.20;;
47912;SDS011;33676;51.006;17.180;2023-04-08T03:01:09;15.50;;;13.70;;
47912;SDS011;33676;51.006;17.180;2023-04-08T03:03:39;15.90;;;12.80;;
47912;SDS011;33676;51.006;17.180;2023-04-08T03:06:07;17.70;;;13.30;;
47912;SDS011;33676;51.006;17.180;2023-04-08T03:08:36;15.50;;;12.90;;
47912;SDS011;33676;51.006;17.180;2023-04-08T03:11:04;16.60;;;13.50;;
47912;SDS011;33676;51.006;17.180;2023-04-08T03:13:33;13.30;;;11.80;;
47912;SDS011;33676;51.006;17.180;2023-04-08T03:16:02;17.50;;;13.20;;
47912;SDS011;33676;51.006;17.180;2023-04-08T03:18:31;15.30;;;12.10;;
47912;SDS011;33676;51.006;17.180;2023-04-08T03:21:00;12.80;;;11.40;;
47912;SDS011;33676;51.006;17.180;2023-04-08T03:23:30;16.60;;;13.00;;
47912;SDS011;33676;51.006;17.180;2023-04-08T03:25:58;16.00;;;11.60;;
47912;SDS011;33676;51.006;17.180;2023-04-08T03:28:27;14.90;;;13.30;;
47912;SDS011;33676;51.006;17.180;2023-04-08T03:30:55;13.20;;;11.60;;
47912;SDS011;33676;51.006;17.180;2023-04-08T03:33:24;14.40;;;12.00;;
47912;SDS011;33676;51.006;17.180;2023-04-08T03:35:53;13.50;;;12.00;;
47912;SDS011;33676;51.006;17.180;2023-04-08T03:38:22;17.50;;;13.80;;
47912;SDS011;33676;51.006;17.180;2023-04-08T03:40:50;15.40;;;13.80;;
47912;SDS011;33676;51.006;17.180;2023-04-08T03:43:18;15.30;;;12.50;;
47912;SDS011;33676;51.006;17.180;2023-04-08T03:45:49;14.40;;;11.50;;
47912;SDS011;33676;51.006;17.180;2023-04-08T03:48:17;15.10;;;12.20;;
47912;SDS011;33676;51.006;17.180;2023-04-08T03:50:46;14.10;;;12.60;;
47912;SDS011;33676;51.006;17.180;2023-04-08T03:53:14;13.30;;;11.80;;
47912;SDS011;33676;51.006;17.180;2023-04-08T03:55:43;14.10;;;12.60;;
47912;SDS011;33676;51.006;17.180;2023-04-08T03:58:12;14.80;;;12.40;;
47912;SDS011;33676;51.006;17.180;2023-04-08T04:00:40;13.00;;;11.30;;
47912;SDS011;33676;51.006;17.180;2023-04-08T04:03:09;13.20;;;11.50;;
47912;SDS011;33676;51.006;17.180;2023-04-08T04:05:40;13.80;;;12.30;;
47912;SDS011;33676;51.006;17.180;2023-04-08T04:08:08;13.90;;;11.80;;
47912;SDS011;33676;51.006;17.180;2023-04-08T04:12:27;14.60;;;12.90;;
47912;SDS011;33676;51.006;17.180;2023-04-08T04:14:55;17.90;;;13.80;;
47912;SDS011;33676;51.006;17.180;2023-04-08T04:17:24;13.40;;;12.00;;
47912;SDS011;33676;51.006;17.180;2023-04-08T04:19:52;14.20;;;12.60;;
47912;SDS011;33676;51.006;17.180;2023-04-08T04:22:21;13.40;;;11.40;;
47912;SDS011;33676;51.006;17.180;2023-04-08T04:24:50;14.50;;;12.70;;
47912;SDS011;33676;51.006;17.180;2023-04-08T04:27:18;12.90;;;11.60;;
47912;SDS011;33676;51.006;17.180;2023-04-08T04:29:46;15.00;;;12.40;;
47912;SDS011;33676;51.006;17.180;2023-04-08T04:32:15;14.00;;;11.80;;
47912;SDS011;33676;51.006;17.180;2023-04-08T04:34:44;14.10;;;12.60;;
47912;SDS011;33676;51.006;17.180;2023-04-08T04:37:12;13.80;;;11.80;;
47912;SDS011;33676;51.006;17.180;2023-04-08T04:39:41;13.50;;;11.80;;
47912;SDS011;33676;51.006;17.180;2023-04-08T04:42:09;15.60;;;13.00;;
47912;SDS011;33676;51.006;17.180;2023-04-08T04:44:38;18.20;;;13.70;;
47912;SDS011;33676;51.006;17.180;2023-04-08T04:47:08;16.90;;;13.80;;
47912;SDS011;33676;51.006;17.180;2023-04-08T04:49:37;16.40;;;14.80;;
47912;SDS011;33676;51.006;17.180;2023-04-08T04:52:07;16.40;;;13.00;;
47912;SDS011;33676;51.006;17.180;2023-04-08T04:54:36;17.20;;;14.20;;
47912;SDS011;33676;51.006;17.180;2023-04-08T04:57:04;14.60;;;12.90;;
47912;SDS011;33676;51.006;17.180;2023-04-08T04:59:33;18.40;;;14.40;;
47912;SDS011;33676;51.006;17.180;2023-04-08T05:02:02;18.10;;;14.80;;
47912;SDS011;33676;51.006;17.180;2023-04-08T05:04:31;17.10;;;14.90;;
47912;SDS011;33676;51.006;17.180;2023-04-08T05:07:00;23.60;;;19.60;;
47912;SDS011;33676;51.006;17.180;2023-04-08T05:09:29;41.50;;;24.90;;
47912;SDS011;33676;51.006;17.180;2023-04-08T05:11:57;35.80;;;23.40;;
47912;SDS011;33676;51.006;17.180;2023-04-08T05:14:28;25.10;;;19.40;;
47912;SDS011;33676;51.006;17.180;2023-04-08T05:16:57;22.60;;;19.30;;
47912;SDS011;33676;51.006;17.180;2023-04-08T05:19:26;24.30;;;18.20;;
47912;SDS011;33676;51.006;17.180;2023-04-08T05:21:54;19.30;;;15.30;;
47912;SDS011;33676;51.006;17.180;2023-04-08T05:24:23;21.00;;;16.00;;
47912;SDS011;33676;51.006;17.180;2023-04-08T05:26:51;17.70;;;15.60;;
47912;SDS011;33676;51.006;17.180;2023-04-08T05:29:20;16.80;;;15.00;;
47912;SDS011;33676;51.006;17.180;2023-04-08T05:31:50;18.20;;;16.30;;
47912;SDS011;33676;51.006;17.180;2023-04-08T05:34:18;16.70;;;14.90;;
47912;SDS011;33676;51.006;17.180;2023-04-08T05:36:50;17.90;;;15.50;;
47912;SDS011;33676;51.006;17.180;2023-04-08T05:39:19;20.30;;;16.10;;
47912;SDS011;33676;51.006;17.180;2023-04-08T05:41:48;14.80;;;13.20;;
47912;SDS011;33676;51.006;17.180;2023-04-08T05:44:16;16.10;;;14.40;;
47912;SDS011;33676;51.006;17.180;2023-04-08T05:46:45;16.70;;;14.80;;
47912;SDS011;33676;51.006;17.180;2023-04-08T05:49:14;15.50;;;13.60;;
47912;SDS011;33676;51.006;17.180;2023-04-08T05:51:44;19.00;;;15.40;;
47912;SDS011;33676;51.006;17.180;2023-04-08T05:54:13;18.00;;;14.10;;
47912;SDS011;33676;51.006;17.180;2023-04-08T05:56:41;17.60;;;15.20;;
47912;SDS011;33676;51.006;17.180;2023-04-08T05:59:09;16.00;;;14.20;;
47912;SDS011;33676;51.006;17.180;2023-04-08T06:01:38;16.00;;;13.00;;
47912;SDS011;33676;51.006;17.180;2023-04-08T06:04:07;15.90;;;14.40;;
47912;SDS011;33676;51.006;17.180;2023-04-08T06:06:38;15.90;;;13.40;;
47912;SDS011;33676;51.006;17.180;2023-04-08T06:09:07;15.00;;;13.40;;
47912;SDS011;33676;51.006;17.180;2023-04-08T06:11:37;14.00;;;12.40;;
47912;SDS011;33676;51.006;17.180;2023-04-08T06:14:05;15.00;;;13.00;;
47912;SDS011;33676;51.006;17.180;2023-04-08T06:16:34;15.60;;;13.90;;
47912;SDS011;33676;51.006;17.180;2023-04-08T06:19:02;16.10;;;14.30;;
47912;SDS011;33676;51.006;17.180;2023-04-08T06:21:31;16.50;;;13.40;;
47912;SDS011;33676;51.006;17.180;2023-04-08T06:23:59;18.40;;;15.10;;
47912;SDS011;33676;51.006;17.180;2023-04-08T06:26:28;17.30;;;14.70;;
47912;SDS011;33676;51.006;17.180;2023-04-08T06:28:56;15.30;;;13.80;;
47912;SDS011;33676;51.006;17.180;2023-04-08T06:31:25;13.00;;;11.60;;
47912;SDS011;33676;51.006;17.180;2023-04-08T06:33:53;15.40;;;13.80;;
47912;SDS011;33676;51.006;17.180;2023-04-08T06:36:23;13.90;;;12.50;;
47912;SDS011;33676;51.006;17.180;2023-04-08T06:38:52;16.00;;;12.80;;
47912;SDS011;33676;51.006;17.180;2023-04-08T06:41:21;14.00;;;12.60;;
47912;SDS011;33676;51.006;17.180;2023-04-08T06:43:49;14.50;;;12.70;;
47912;SDS011;33676;51.006;17.180;2023-04-08T06:46:18;14.00;;;12.60;;
47912;SDS011;33676;51.006;17.180;2023-04-08T06:48:46;13.80;;;12.40;;
47912;SDS011;33676;51.006;17.180;2023-04-08T06:51:15;14.80;;;12.10;;
47912;SDS011;33676;51.006;17.180;2023-04-08T06:53:43;14.50;;;13.10;;
47912;SDS011;33676;51.006;17.180;2023-04-08T06:56:12;13.20;;;11.80;;
47912;SDS011;33676;51.006;17.180;2023-04-08T06:58:40;13.30;;;12.10;;
47912;SDS011;33676;51.006;17.180;2023-04-08T07:01:09;15.70;;;13.90;;
47912;SDS011;33676;51.006;17.180;2023-04-08T07:03:38;14.70;;;13.20;;
47912;SDS011;33676;51.006;17.180;2023-04-08T07:06:06;14.40;;;12.40;;
47912;SDS011;33676;51.006;17.180;2023-04-08T07:08:35;14.60;;;13.20;;
47912;SDS011;33676;51.006;17.180;2023-04-08T07:11:04;16.40;;;13.70;;
47912;SDS011;33676;51.006;17.180;2023-04-08T07:13:33;16.00;;;14.40;;
47912;SDS011;33676;51.006;17.180;2023-04-08T07:16:02;13.80;;;11.80;;
47912;SDS011;33676;51.006;17.180;2023-04-08T07:18:31;13.30;;;11.90;;
47912;SDS011;33676;51.006;17.180;2023-04-08T07:21:00;13.70;;;11.80;;
47912;SDS011;33676;51.006;17.180;2023-04-08T07:23:29;13.40;;;11.80;;
47912;SDS011;33676;51.006;17.180;2023-04-08T07:26:02;11.40;;;10.30;;
47912;SDS011;33676;51.006;17.180;2023-04-08T07:28:31;11.00;;;9.70;;
47912;SDS011;33676;51.006;17.180;2023-04-08T07:31:13;11.80;;;10.60;;
47912;SDS011;33676;51.006;17.180;2023-04-08T07:33:44;11.30;;;10.20;;
47912;SDS011;33676;51.006;17.180;2023-04-08T07:36:13;11.90;;;10.80;;
47912;SDS011;33676;51.006;17.180;2023-04-08T07:38:43;11.40;;;10.40;;
47912;SDS011;33676;51.006;17.180;2023-04-08T07:41:12;13.10;;;11.80;;
47912;SDS011;33676;51.006;17.180;2023-04-08T07:43:40;12.50;;;11.30;;
47912;SDS011;33676;51.006;17.180;2023-04-08T07:46:09;11.90;;;10.70;;
47912;SDS011;33676;51.006;17.180;2023-04-08T07:48:38;12.90;;;11.50;;
47912;SDS011;33676;51.006;17.180;2023-04-08T07:51:08;10.70;;;9.80;;
47912;SDS011;33676;51.006;17.180;2023-04-08T07:53:39;9.50;;;8.60;;
47912;SDS011;33676;51.006;17.180;2023-04-08T07:56:11;11.20;;;10.10;;
47912;SDS011;33676;51.006;17.180;2023-04-08T07:58:41;14.80;;;13.30;;
47912;SDS011;33676;51.006;17.180;2023-04-08T08:01:33;13.70;;;12.30;;
47912;SDS011;33676;51.006;17.180;2023-04-08T08:04:03;12.50;;;11.20;;
47912;SDS011;33676;51.006;17.180;2023-04-08T08:06:34;11.70;;;10.50;;
47912;SDS011;33676;51.006;17.180;2023-04-08T08:09:04;14.10;;;12.60;;
47912;SDS011;33676;51.006;17.180;2023-04-08T08:11:33;12.00;;;10.90;;
47912;SDS011;33676;51.006;17.180;2023-04-08T08:14:04;12.30;;;11.10;;
47912;SDS011;33676;51.006;17.180;2023-04-08T08:16:34;12.20;;;11.00;;
47912;SDS011;33676;51.006;17.180;2023-04-08T08:19:03;11.70;;;10.60;;
47912;SDS011;33676;51.006;17.180;2023-04-08T08:21:37;12.10;;;10.90;;
47912;SDS011;33676;51.006;17.180;2023-04-08T08:24:06;9.90;;;8.90;;
47912;SDS011;33676;51.006;17.180;2023-04-08T08:26:35;11.10;;;10.00;;
47912;SDS011;33676;51.006;17.180;2023-04-08T08:29:04;11.90;;;10.90;;
47912;SDS011;33676;51.006;17.180;2023-04-08T08:31:35;13.90;;;12.50;;
47912;SDS011;33676;51.006;17.180;2023-04-08T08:34:04;12.70;;;11.40;;
47912;SDS011;33676;51.006;17.180;2023-04-08T08:36:32;12.00;;;10.90;;
47912;SDS011;33676;51.006;17.180;2023-04-08T08:39:02;12.50;;;11.40;;
47912;SDS011;33676;51.006;17.180;2023-04-08T08:41:33;12.40;;;11.20;;
47912;SDS011;33676;51.006;17.180;2023-04-08T08:44:05;12.40;;;11.20;;
47912;SDS011;33676;51.006;17.180;2023-04-08T08:46:35;11.30;;;10.20;;
47912;SDS011;33676;51.006;17.180;2023-04-08T08:49:05;11.20;;;10.30;;
47912;SDS011;33676;51.006;17.180;2023-04-08T08:51:33;10.40;;;9.40;;
47912;SDS011;33676;51.006;17.180;2023-04-08T08:54:03;11.10;;;10.10;;
47912;SDS011;33676;51.006;17.180;2023-04-08T08:56:32;10.60;;;9.50;;
47912;SDS011;33676;51.006;17.180;2023-04-08T08:59:01;11.90;;;10.60;;
47912;SDS011;33676;51.006;17.180;2023-04-08T09:01:35;11.10;;;10.00;;
47912;SDS011;33676;51.006;17.180;2023-04-08T09:04:07;10.20;;;9.30;;
47912;SDS011;33676;51.006;17.180;2023-04-08T09:06:39;8.90;;;8.10;;
47912;SDS011;33676;51.006;17.180;2023-04-08T09:09:08;10.90;;;9.90;;
47912;SDS011;33676;51.006;17.180;2023-04-08T09:11:42;10.80;;;9.80;;
47912;SDS011;33676;51.006;17.180;2023-04-08T09:17:00;10.10;;;9.10;;
47912;SDS011;33676;51.006;17.180;2023-04-08T09:19:29;9.40;;;8.50;;
47912;SDS011;33676;51.006;17.180;2023-04-08T09:22:08;11.10;;;10.20;;
47912;SDS011;33676;51.006;17.180;2023-04-08T09:24:38;9.40;;;8.60;;
47912;SDS011;33676;51.006;17.180;2023-04-08T09:27:07;9.10;;;8.20;;
47912;SDS011;33676;51.006;17.180;2023-04-08T09:29:36;8.90;;;8.10;;
47912;SDS011;33676;51.006;17.180;2023-04-08T09:32:07;10.80;;;9.70;;
47912;SDS011;33676;51.006;17.180;2023-04-08T09:34:35;10.50;;;9.50;;
47912;SDS011;33676;51.006;17.180;2023-04-08T09:37:11;9.10;;;8.20;;
47912;SDS011;33676;51.006;17.180;2023-04-08T09:39:40;10.70;;;9.70;;
47912;SDS011;33676;51.006;17.180;2023-04-08T09:42:12;9.70;;;8.80;;
47912;SDS011;33676;51.006;17.180;2023-04-08T09:44:43;10.60;;;9.70;;
47912;SDS011;33676;51.006;17.180;2023-04-08T09:47:18;9.60;;;8.80;;
47912;SDS011;33676;51.006;17.180;2023-04-08T09:49:58;8.90;;;8.00;;
47912;SDS011;33676;51.006;17.180;2023-04-08T09:52:44;9.50;;;8.70;;
47912;SDS011;33676;51.006;17.180;2023-04-08T09:55:20;10.80;;;9.30;;
47912;SDS011;33676;51.006;17.180;2023-04-08T09:58:00;8.30;;;7.60;;
47912;SDS011;33676;51.006;17.180;2023-04-08T10:00:33;8.70;;;8.00;;
47912;SDS011;33676;51.006;17.180;2023-04-08T10:05:49;9.90;;;9.10;;
47912;SDS011;33676;51.006;17.180;2023-04-08T10:08:20;9.30;;;8.40;;
47912;SDS011;33676;51.006;17.180;2023-04-08T10:10:50;10.40;;;9.50;;
47912;SDS011;33676;51.006;17.180;2023-04-08T10:13:19;9.30;;;8.50;;
47912;SDS011;33676;51.006;17.180;2023-04-08T10:15:48;10.30;;;9.40;;
47912;SDS011;33676;51.006;17.180;2023-04-08T10:20:56;10.60;;;9.60;;
47912;SDS011;33676;51.006;17.180;2023-04-08T10:23:55;10.80;;;9.80;;
47912;SDS011;33676;51.006;17.180;2023-04-08T10:26:42;13.20;;;12.00;;
47912;SDS011;33676;51.006;17.180;2023-04-08T10:31:45;11.80;;;10.70;;
47912;SDS011;33676;51.006;17.180;2023-04-08T10:34:19;12.10;;;10.90;;
47912;SDS011;33676;51.006;17.180;2023-04-08T10:36:50;10.80;;;9.80;;
47912;SDS011;33676;51.006;17.180;2023-04-08T10:39:19;10.10;;;9.20;;
47912;SDS011;33676;51.006;17.180;2023-04-08T10:41:49;12.40;;;11.30;;
47912;SDS011;33676;51.006;17.180;2023-04-08T10:44:23;11.30;;;10.40;;
47912;SDS011;33676;51.006;17.180;2023-04-08T10:46:54;11.30;;;10.40;;
47912;SDS011;33676;51.006;17.180;2023-04-08T10:49:26;11.20;;;10.30;;
47912;SDS011;33676;51.006;17.180;2023-04-08T10:52:05;10.00;;;9.20;;
47912;SDS011;33676;51.006;17.180;2023-04-08T10:54:36;11.10;;;10.20;;
47912;SDS011;33676;51.006;17.180;2023-04-08T10:57:05;10.40;;;9.60;;
47912;SDS011;33676;51.006;17.180;2023-04-08T10:59:34;8.40;;;7.70;;
47912;SDS011;33676;51.006;17.180;2023-04-08T11:02:04;9.50;;;8.70;;
47912;SDS011;33676;51.006;17.180;2023-04-08T11:04:32;8.80;;;8.00;;
47912;SDS011;33676;51.006;17.180;2023-04-08T11:07:01;8.40;;;7.80;;
47912;SDS011;33676;51.006;17.180;2023-04-08T11:09:35;9.40;;;8.60;;
47912;SDS011;33676;51.006;17.180;2023-04-08T11:12:04;8.40;;;7.70;;
47912;SDS011;33676;51.006;17.180;2023-04-08T11:14:33;9.10;;;8.40;;
47912;SDS011;33676;51.006;17.180;2023-04-08T11:17:02;9.30;;;8.50;;
47912;SDS011;33676;51.006;17.180;2023-04-08T11:19:34;9.50;;;8.60;;
47912;SDS011;33676;51.006;17.180;2023-04-08T11:22:04;9.70;;;9.00;;
47912;SDS011;33676;51.006;17.180;2023-04-08T11:24:32;8.90;;;8.20;;
47912;SDS011;33676;51.006;17.180;2023-04-08T11:27:03;9.80;;;9.00;;
47912;SDS011;33676;51.006;17.180;2023-04-08T11:29:35;8.10;;;7.50;;
47912;SDS011;33676;51.006;17.180;2023-04-08T11:32:05;8.60;;;8.00;;
47912;SDS011;33676;51.006;17.180;2023-04-08T11:34:38;8.30;;;7.60;;
47912;SDS011;33676;51.006;17.180;2023-04-08T11:37:07;10.10;;;9.30;;
47912;SDS011;33676;51.006;17.180;2023-04-08T11:39:42;9.20;;;8.40;;
47912;SDS011;33676;51.006;17.180;2023-04-08T11:42:28;10.10;;;9.20;;
47912;SDS011;33676;51.006;17.180;2023-04-08T11:57:51;10.70;;;9.90;;
47912;SDS011;33676;51.006;17.180;2023-04-08T12:00:22;10.60;;;9.60;;
47912;SDS011;33676;51.006;17.180;2023-04-08T12:02:51;9.70;;;8.90;;
47912;SDS011;33676;51.006;17.180;2023-04-08T12:05:20;10.00;;;9.10;;
47912;SDS011;33676;51.006;17.180;2023-04-08T12:07:49;9.60;;;8.80;;
47912;SDS011;33676;51.006;17.180;2023-04-08T12:10:17;10.00;;;9.10;;
47912;SDS011;33676;51.006;17.180;2023-04-08T12:12:46;10.40;;;9.50;;
47912;SDS011;33676;51.006;17.180;2023-04-08T12:15:14;9.80;;;9.10;;
47912;SDS011;33676;51.006;17.180;2023-04-08T12:17:43;10.50;;;9.50;;
47912;SDS011;33676;51.006;17.180;2023-04-08T12:20:12;11.00;;;10.10;;
47912;SDS011;33676;51.006;17.180;2023-04-08T12:22:41;10.30;;;9.50;;
47912;SDS011;33676;51.006;17.180;2023-04-08T12:25:09;10.00;;;9.10;;
47912;SDS011;33676;51.006;17.180;2023-04-08T12:27:38;10.20;;;9.30;;
47912;SDS011;33676;51.006;17.180;2023-04-08T12:30:07;9.40;;;8.60;;
47912;SDS011;33676;51.006;17.180;2023-04-08T12:32:36;9.30;;;8.60;;
47912;SDS011;33676;51.006;17.180;2023-04-08T12:35:05;9.00;;;8.10;;
47912;SDS011;33676;51.006;17.180;2023-04-08T12:37:33;8.60;;;7.90;;
47912;SDS011;33676;51.006;17.180;2023-04-08T12:40:03;10.10;;;9.20;;
47912;SDS011;33676;51.006;17.180;2023-04-08T12:42:31;9.30;;;8.60;;
47912;SDS011;33676;51.006;17.180;2023-04-08T12:45:00;9.60;;;8.90;;
47912;SDS011;33676;51.006;17.180;2023-04-08T12:47:28;9.40;;;8.70;;
47912;SDS011;33676;51.006;17.180;2023-04-08T12:49:57;9.30;;;8.40;;
47912;SDS011;33676;51.006;17.180;2023-04-08T12:52:25;9.50;;;8.70;;
47912;SDS011;33676;51.006;17.180;2023-04-08T12:54:54;8.50;;;7.80;;
47912;SDS011;33676;51.006;17.180;2023-04-08T12:57:23;8.60;;;7.90;;
47912;SDS011;33676;51.006;17.180;2023-04-08T12:59:51;9.00;;;8.30;;
47912;SDS011;33676;51.006;17.180;2023-04-08T13:02:20;7.30;;;6.80;;
47912;SDS011;33676;51.006;17.180;2023-04-08T13:04:49;8.10;;;7.50;;
47912;SDS011;33676;51.006;17.180;2023-04-08T13:07:19;9.40;;;8.50;;
47912;SDS011;33676;51.006;17.180;2023-04-08T13:09:47;7.90;;;7.40;;
47912;SDS011;33676;51.006;17.180;2023-04-08T13:12:16;7.90;;;7.40;;
47912;SDS011;33676;51.006;17.180;2023-04-08T13:14:44;8.60;;;7.50;;
47912;SDS011;33676;51.006;17.180;2023-04-08T13:17:13;8.20;;;7.70;;
47912;SDS011;33676;51.006;17.180;2023-04-08T13:19:42;7.60;;;7.10;;
47912;SDS011;33676;51.006;17.180;2023-04-08T13:22:10;7.00;;;6.40;;
47912;SDS011;33676;51.006;17.180;2023-04-08T13:24:38;7.80;;;7.30;;
47912;SDS011;33676;51.006;17.180;2023-04-08T13:27:07;8.10;;;7.60;;
47912;SDS011;33676;51.006;17.180;2023-04-08T13:29:35;8.10;;;7.50;;
47912;SDS011;33676;51.006;17.180;2023-04-08T13:32:04;8.20;;;7.60;;
47912;SDS011;33676;51.006;17.180;2023-04-08T13:34:32;8.70;;;7.90;;
47912;SDS011;33676;51.006;17.180;2023-04-08T13:37:01;8.80;;;8.20;;
47912;SDS011;33676;51.006;17.180;2023-04-08T13:39:30;8.70;;;8.00;;
47912;SDS011;33676;51.006;17.180;2023-04-08T13:41:59;9.20;;;8.40;;
47912;SDS011;33676;51.006;17.180;2023-04-08T13:44:27;8.90;;;8.20;;
47912;SDS011;33676;51.006;17.180;2023-04-08T13:46:58;8.60;;;7.90;;
47912;SDS011;33676;51.006;17.180;2023-04-08T13:49:27;7.80;;;7.20;;
47912;SDS011;33676;51.006;17.180;2023-04-08T13:51:55;8.00;;;7.50;;
47912;SDS011;33676;51.006;17.180;2023-04-08T13:54:24;7.30;;;6.70;;
47912;SDS011;33676;51.006;17.180;2023-04-08T13:56:52;8.10;;;7.50;;
47912;SDS011;33676;51.006;17.180;2023-04-08T13:59:21;8.60;;;7.80;;
47912;SDS011;33676;51.006;17.180;2023-04-08T14:01:50;8.30;;;7.60;;
47912;SDS011;33676;51.006;17.180;2023-04-08T14:04:22;9.30;;;8.40;;
47912;SDS011;33676;51.006;17.180;2023-04-08T14:06:51;7.60;;;7.10;;
47912;SDS011;33676;51.006;17.180;2023-04-08T14:09:20;7.30;;;6.80;;
47912;SDS011;33676;51.006;17.180;2023-04-08T14:11:49;7.20;;;6.60;;
47912;SDS011;33676;51.006;17.180;2023-04-08T14:14:17;7.80;;;7.20;;
47912;SDS011;33676;51.006;17.180;2023-04-08T14:16:46;8.60;;;7.90;;
47912;SDS011;33676;51.006;17.180;2023-04-08T14:19:14;7.50;;;7.00;;
47912;SDS011;33676;51.006;17.180;2023-04-08T14:21:43;8.60;;;7.90;;
47912;SDS011;33676;51.006;17.180;2023-04-08T14:24:12;8.50;;;7.80;;
47912;SDS011;33676;51.006;17.180;2023-04-08T14:26:40;8.60;;;8.00;;
47912;SDS011;33676;51.006;17.180;2023-04-08T14:29:09;9.40;;;8.70;;
47912;SDS011;33676;51.006;17.180;2023-04-08T14:31:38;15.90;;;14.50;;
47912;SDS011;33676;51.006;17.180;2023-04-08T14:34:06;18.60;;;16.90;;
47912;SDS011;33676;51.006;17.180;2023-04-08T14:36:34;12.70;;;11.60;;
47912;SDS011;33676;51.006;17.180;2023-04-08T14:39:03;11.80;;;10.80;;
47912;SDS011;33676;51.006;17.180;2023-04-08T14:41:31;12.70;;;11.60;;
47912;SDS011;33676;51.006;17.180;2023-04-08T14:44:00;9.30;;;8.50;;
47912;SDS011;33676;51.006;17.180;2023-04-08T14:46:28;8.90;;;8.30;;
47912;SDS011;33676;51.006;17.180;2023-04-08T14:48:57;9.30;;;8.60;;
47912;SDS011;33676;51.006;17.180;2023-04-08T14:51:26;14.60;;;13.10;;
47912;SDS011;33676;51.006;17.180;2023-04-08T14:53:54;27.70;;;24.90;;
47912;SDS011;33676;51.006;17.180;2023-04-08T14:56:23;11.10;;;10.20;;
47912;SDS011;33676;51.006;17.180;2023-04-08T14:58:51;10.80;;;9.70;;
47912;SDS011;33676;51.006;17.180;2023-04-08T15:01:20;10.00;;;9.10;;
47912;SDS011;33676;51.006;17.180;2023-04-08T15:03:48;10.30;;;9.40;;
47912;SDS011;33676;51.006;17.180;2023-04-08T15:15:03;11.80;;;10.80;;